Time;durP1;ratioP1;P1;durP2;ratioP2;P2;SDS_P1;SDS_P2;PMS_P1;PMS_P2;Temp;Humidity;BMP_temperature;BMP_pressure;BME280_temperature;BME280_humidity;BME280_pressure;Samples;Min_cycle;Max_cycle;Signal;HPM_P1;HPM_P2
2021/07/09 00:02:07;;;;;;;1.80;1.70;;;;;;;;;;483543;246;27950;-72
2021/07/09 00:04:09;;;;;;;1.50;1.50;;;;;;;;;;483557;246;28233;-73
2021/07/09 00:06:12;;;;;;;1.67;1.60;;;;;;;;;;483535;246;27397;-73
2021/07/09 00:08:13;;;;;;;1.70;1.60;;;;;;;;;;483509;246;27857;-73
2021/07/09 00:10:16;;;;;;;1.70;1.60;;;;;;;;;;483544;246;27413;-73
2021/07/09 00:12:18;;;;;;;1.73;1.63;;;;;;;;;;483514;246;27943;-73
2021/07/09 00:14:20;;;;;;;1.50;1.50;;;;;;;;;;483502;246;27424;-74
2021/07/09 00:16:22;;;;;;;1.60;1.50;;;;;;;;;;483516;246;28659;-73
2021/07/09 00:18:24;;;;;;;1.20;1.20;;;;;;;;;;483505;246;27504;-74
2021/07/09 00:20:26;;;;;;;1.43;1.43;;;;;;;;;;483514;246;28004;-73
2021/07/09 00:22:28;;;;;;;1.40;1.30;;;;;;;;;;483527;246;27544;-73
2021/07/09 00:24:31;;;;;;;1.70;1.60;;;;;;;;;;483512;246;27551;-73
2021/07/09 00:26:33;;;;;;;1.50;1.40;;;;;;;;;;483454;246;27429;-73
2021/07/09 00:28:35;;;;;;;1.40;1.40;;;;;;;;;;483502;246;27498;-73
2021/07/09 00:30:37;;;;;;;1.60;1.60;;;;;;;;;;483530;246;27548;-74
2021/07/09 00:32:39;;;;;;;1.37;1.37;;;;;;;;;;483522;246;27441;-74
2021/07/09 00:34:41;;;;;;;1.50;1.50;;;;;;;;;;483513;246;27457;-73
2021/07/09 00:36:43;;;;;;;4.30;1.50;;;;;;;;;;483529;246;27515;-73
2021/07/09 00:38:46;;;;;;;1.70;1.60;;;;;;;;;;483493;246;27436;-73
2021/07/09 00:40:48;;;;;;;1.40;1.40;;;;;;;;;;483508;246;27509;-73
2021/07/09 00:42:50;;;;;;;1.80;1.70;;;;;;;;;;483473;246;27524;-73
2021/07/09 00:44:52;;;;;;;1.70;1.60;;;;;;;;;;483504;246;27487;-73
2021/07/09 00:46:54;;;;;;;1.90;1.80;;;;;;;;;;483505;246;27504;-73
2021/07/09 00:48:56;;;;;;;1.80;1.70;;;;;;;;;;483506;246;27504;-73
2021/07/09 00:50:58;;;;;;;1.20;1.20;;;;;;;;;;483495;246;27520;-73
2021/07/09 00:53:00;;;;;;;1.90;1.80;;;;;;;;;;483507;246;27432;-74
2021/07/09 00:55:02;;;;;;;1.80;1.70;;;;;;;;;;483523;246;27454;-73
2021/07/09 00:57:05;;;;;;;1.70;1.60;;;;;;;;;;483466;246;27406;-74
2021/07/09 00:59:07;;;;;;;1.50;1.50;;;;;;;;;;483486;246;27492;-73
2021/07/09 01:01:09;;;;;;;4.60;1.87;;;;;;;;;;483510;246;27434;-73
2021/07/09 01:03:11;;;;;;;1.50;1.50;;;;;;;;;;483515;246;27493;-73
2021/07/09 01:05:13;;;;;;;2.00;1.90;;;;;;;;;;483460;246;27402;-73
2021/07/09 01:07:15;;;;;;;1.60;1.50;;;;;;;;;;483503;246;27409;-73
2021/07/09 01:09:17;;;;;;;1.73;1.63;;;;;;;;;;483484;246;27465;-74
2021/07/09 01:11:20;;;;;;;1.77;1.67;;;;;;;;;;483521;246;27413;-74
2021/07/09 01:13:22;;;;;;;2.00;1.90;;;;;;;;;;483500;246;27405;-73
2021/07/09 01:15:24;;;;;;;3.00;1.60;;;;;;;;;;483528;246;27505;-73
2021/07/09 01:17:26;;;;;;;1.47;1.47;;;;;;;;;;483529;246;27440;-73
2021/07/09 01:19:28;;;;;;;1.50;1.50;;;;;;;;;;483509;246;27564;-74
2021/07/09 01:21:30;;;;;;;1.63;1.40;;;;;;;;;;483513;246;27382;-73
2021/07/09 01:23:32;;;;;;;1.40;1.40;;;;;;;;;;483512;246;27491;-72
2021/07/09 01:25:34;;;;;;;1.50;1.50;;;;;;;;;;483522;246;27402;-74
2021/07/09 01:27:36;;;;;;;1.40;1.40;;;;;;;;;;483481;246;27415;-74
2021/07/09 01:29:38;;;;;;;1.50;1.50;;;;;;;;;;483528;246;27533;-73
2021/07/09 01:31:41;;;;;;;1.80;1.70;;;;;;;;;;483519;246;27413;-73
2021/07/09 01:33:43;;;;;;;1.70;1.60;;;;;;;;;;483455;246;27402;-73
2021/07/09 01:35:45;;;;;;;1.30;1.30;;;;;;;;;;483496;246;27838;-73
2021/07/09 01:37:47;;;;;;;2.37;1.40;;;;;;;;;;483477;246;27504;-73
2021/07/09 01:39:49;;;;;;;1.43;1.37;;;;;;;;;;483406;246;27485;-73
2021/07/09 01:41:51;;;;;;;1.40;1.40;;;;;;;;;;483484;246;27421;-73
2021/07/09 01:43:53;;;;;;;1.43;1.40;;;;;;;;;;483497;246;27440;-73
2021/07/09 01:45:55;;;;;;;1.47;1.47;;;;;;;;;;483498;246;27438;-73
2021/07/09 01:47:57;;;;;;;1.70;1.60;;;;;;;;;;483499;246;27556;-73
2021/07/09 01:50:00;;;;;;;1.40;1.40;;;;;;;;;;483504;246;27615;-74
2021/07/09 01:52:02;;;;;;;1.30;1.30;;;;;;;;;;483504;246;27472;-73
2021/07/09 01:54:04;;;;;;;1.40;1.30;;;;;;;;;;483487;246;27413;-73
2021/07/09 01:56:06;;;;;;;1.47;1.40;;;;;;;;;;483511;246;27556;-73
2021/07/09 01:58:08;;;;;;;1.50;1.50;;;;;;;;;;483511;246;27434;-73
2021/07/09 02:00:10;;;;;;;1.60;1.50;;;;;;;;;;483495;246;27448;-73
2021/07/09 02:02:12;;;;;;;1.67;1.57;;;;;;;;;;483498;246;27560;-73
2021/07/09 02:04:14;;;;;;;1.67;1.57;;;;;;;;;;483498;246;27467;-74
2021/07/09 02:06:16;;;;;;;1.40;1.40;;;;;;;;;;483468;246;27539;-73
2021/07/09 02:08:19;;;;;;;1.70;1.63;;;;;;;;;;483435;246;27452;-73
2021/07/09 02:10:21;;;;;;;1.97;1.87;;;;;;;;;;483460;246;27430;-73
2021/07/09 02:12:23;;;;;;;1.60;1.47;;;;;;;;;;483493;246;27444;-73
2021/07/09 02:14:25;;;;;;;1.33;1.33;;;;;;;;;;483490;246;27461;-73
2021/07/09 02:16:27;;;;;;;1.37;1.37;;;;;;;;;;483502;246;27446;-73
2021/07/09 02:18:29;;;;;;;1.70;1.60;;;;;;;;;;483498;246;27506;-73
2021/07/09 02:20:31;;;;;;;1.53;1.53;;;;;;;;;;483519;246;27899;-73
2021/07/09 02:22:33;;;;;;;1.50;1.40;;;;;;;;;;483514;246;27386;-73
2021/07/09 02:24:36;;;;;;;1.60;1.50;;;;;;;;;;483420;246;27437;-73
2021/07/09 02:26:38;;;;;;;1.60;1.60;;;;;;;;;;483482;246;27566;-73
2021/07/09 02:28:40;;;;;;;3.27;1.60;;;;;;;;;;483516;246;27417;-73
2021/07/09 02:30:42;;;;;;;1.60;1.60;;;;;;;;;;483564;246;27452;-73
2021/07/09 02:32:44;;;;;;;2.50;1.90;;;;;;;;;;483588;246;27402;-73
2021/07/09 02:34:46;;;;;;;1.73;1.60;;;;;;;;;;483562;246;27462;-73
2021/07/09 02:36:48;;;;;;;2.00;1.90;;;;;;;;;;483549;246;27646;-73
2021/07/09 02:38:50;;;;;;;1.43;1.40;;;;;;;;;;483578;246;27394;-74
2021/07/09 02:40:52;;;;;;;1.77;1.67;;;;;;;;;;483539;246;27413;-73
2021/07/09 02:42:55;;;;;;;2.10;2.00;;;;;;;;;;483551;246;27457;-74
2021/07/09 02:44:57;;;;;;;2.30;1.83;;;;;;;;;;483554;246;27417;-73
2021/07/09 02:46:59;;;;;;;1.90;1.80;;;;;;;;;;483565;246;27426;-73
2021/07/09 02:49:01;;;;;;;1.83;1.73;;;;;;;;;;483515;246;27913;-73
2021/07/09 02:51:03;;;;;;;2.00;1.90;;;;;;;;;;483545;246;27376;-73
2021/07/09 02:53:05;;;;;;;1.80;1.70;;;;;;;;;;483549;246;27484;-73
2021/07/09 02:55:07;;;;;;;1.70;1.60;;;;;;;;;;483532;246;27421;-73
2021/07/09 02:57:09;;;;;;;1.90;1.80;;;;;;;;;;483562;246;27928;-73
2021/07/09 02:59:11;;;;;;;2.00;1.90;;;;;;;;;;483559;246;27501;-73
2021/07/09 03:01:14;;;;;;;1.80;1.70;;;;;;;;;;483532;246;27449;-73
2021/07/09 03:03:16;;;;;;;2.37;1.73;;;;;;;;;;483520;246;27493;-73
2021/07/09 03:05:18;;;;;;;2.00;1.90;;;;;;;;;;483555;246;27438;-73
2021/07/09 03:07:20;;;;;;;2.00;1.90;;;;;;;;;;483505;246;27429;-73
2021/07/09 03:09:22;;;;;;;2.30;2.10;;;;;;;;;;483531;246;27444;-73
2021/07/09 03:11:24;;;;;;;2.20;2.10;;;;;;;;;;483538;246;27416;-73
2021/07/09 03:13:26;;;;;;;2.20;1.80;;;;;;;;;;483523;246;27888;-73
2021/07/09 03:15:28;;;;;;;1.90;1.80;;;;;;;;;;483552;246;27429;-73
2021/07/09 03:17:30;;;;;;;2.57;2.37;;;;;;;;;;483531;246;27449;-73
2021/07/09 03:19:33;;;;;;;2.00;1.90;;;;;;;;;;483542;246;27500;-73
2021/07/09 03:21:35;;;;;;;1.90;1.80;;;;;;;;;;483527;246;27433;-73
2021/07/09 03:23:37;;;;;;;2.30;2.20;;;;;;;;;;483538;246;27535;-73
2021/07/09 03:25:39;;;;;;;2.53;2.33;;;;;;;;;;483529;246;27682;-73
2021/07/09 03:27:41;;;;;;;2.20;2.10;;;;;;;;;;483544;246;27433;-73
2021/07/09 03:29:43;;;;;;;1.90;1.80;;;;;;;;;;483531;246;27453;-73
2021/07/09 03:31:45;;;;;;;2.23;2.13;;;;;;;;;;483533;246;27386;-73
2021/07/09 03:33:47;;;;;;;2.87;2.20;;;;;;;;;;483534;246;27417;-73
2021/07/09 03:35:50;;;;;;;2.30;2.20;;;;;;;;;;483525;246;27437;-73
2021/07/09 03:37:52;;;;;;;2.50;2.30;;;;;;;;;;483533;246;27421;-74
2021/07/09 03:39:54;;;;;;;2.40;2.20;;;;;;;;;;483527;246;27399;-73
2021/07/09 03:41:56;;;;;;;2.20;2.10;;;;;;;;;;483518;246;27482;-73
2021/07/09 03:43:58;;;;;;;2.40;2.30;;;;;;;;;;483534;246;27511;-74
2021/07/09 03:46:00;;;;;;;2.60;2.40;;;;;;;;;;483526;246;27413;-73
2021/07/09 03:48:02;;;;;;;2.60;2.40;;;;;;;;;;483508;246;27386;-73
2021/07/09 03:50:04;;;;;;;2.47;2.30;;;;;;;;;;483532;246;27507;-73
2021/07/09 03:52:06;;;;;;;2.60;2.40;;;;;;;;;;483523;246;27489;-73
2021/07/09 03:54:10;;;;;;;2.40;2.20;;;;;;;;;;483415;246;27449;-73
2021/07/09 03:56:11;;;;;;;2.77;2.57;;;;;;;;;;483369;246;27468;-73
2021/07/09 03:58:13;;;;;;;2.27;2.07;;;;;;;;;;483408;246;27755;-73
2021/07/09 04:00:15;;;;;;;2.73;2.33;;;;;;;;;;483369;246;27509;-73
2021/07/09 04:02:17;;;;;;;2.50;2.20;;;;;;;;;;483420;246;27775;-73
2021/07/09 04:04:19;;;;;;;3.00;2.80;;;;;;;;;;483389;246;27457;-73
2021/07/09 04:06:21;;;;;;;2.50;2.40;;;;;;;;;;483478;246;27560;-73
2021/07/09 04:08:23;;;;;;;2.40;2.20;;;;;;;;;;483472;246;27422;-73
2021/07/09 04:10:25;;;;;;;2.80;2.60;;;;;;;;;;483527;246;27538;-72
2021/07/09 04:12:28;;;;;;;2.20;2.10;;;;;;;;;;483535;246;27419;-73
2021/07/09 04:14:30;;;;;;;2.93;2.70;;;;;;;;;;483517;246;27462;-73
2021/07/09 04:16:32;;;;;;;2.63;2.43;;;;;;;;;;483509;246;27435;-73
2021/07/09 04:18:34;;;;;;;3.77;2.40;;;;;;;;;;483530;246;27461;-74
2021/07/09 04:20:36;;;;;;;2.70;2.50;;;;;;;;;;483531;246;27508;-73
2021/07/09 04:22:38;;;;;;;2.60;2.40;;;;;;;;;;483461;246;27441;-73
2021/07/09 04:24:40;;;;;;;2.30;2.20;;;;;;;;;;483491;246;27514;-73
2021/07/09 04:26:42;;;;;;;2.53;2.20;;;;;;;;;;483508;246;27520;-73
2021/07/09 04:28:44;;;;;;;2.73;2.53;;;;;;;;;;483501;246;27431;-73
2021/07/09 04:30:49;;;;;;;2.20;2.10;;;;;;;;;;483505;246;27449;-73
2021/07/09 04:32:49;;;;;;;2.73;2.53;;;;;;;;;;483331;246;27527;-73
2021/07/09 04:34:51;;;;;;;3.50;2.63;;;;;;;;;;483495;246;27560;-74
2021/07/09 04:36:53;;;;;;;2.73;2.53;;;;;;;;;;483494;243;27417;-74
2021/07/09 04:38:55;;;;;;;3.40;2.70;;;;;;;;;;483514;246;27424;-73
2021/07/09 04:40:57;;;;;;;2.73;2.50;;;;;;;;;;483519;246;27374;-74
2021/07/09 04:42:59;;;;;;;2.70;2.50;;;;;;;;;;483489;246;27466;-74
2021/07/09 04:45:01;;;;;;;3.57;3.03;;;;;;;;;;483502;246;27395;-73
2021/07/09 04:47:03;;;;;;;3.03;2.63;;;;;;;;;;483520;246;27402;-73
2021/07/09 04:49:06;;;;;;;2.50;2.40;;;;;;;;;;483519;246;27394;-74
2021/07/09 04:51:08;;;;;;;3.50;3.20;;;;;;;;;;483522;246;27504;-74
2021/07/09 04:53:10;;;;;;;3.10;2.80;;;;;;;;;;483475;246;27433;-73
2021/07/09 04:55:12;;;;;;;3.30;3.07;;;;;;;;;;483511;246;27494;-73
2021/07/09 04:57:14;;;;;;;3.30;3.03;;;;;;;;;;483494;246;27492;-73
2021/07/09 04:59:16;;;;;;;3.00;2.80;;;;;;;;;;483504;246;27572;-73
2021/07/09 05:01:18;;;;;;;3.03;2.83;;;;;;;;;;483532;246;27378;-73
2021/07/09 05:03:20;;;;;;;3.93;2.50;;;;;;;;;;483473;246;27501;-73
2021/07/09 05:05:22;;;;;;;3.60;3.30;;;;;;;;;;483511;246;27480;-73
2021/07/09 05:07:25;;;;;;;2.97;2.63;;;;;;;;;;483493;246;27445;-73
2021/07/09 05:09:27;;;;;;;3.40;3.10;;;;;;;;;;483516;246;27425;-73
2021/07/09 05:11:29;;;;;;;2.83;2.67;;;;;;;;;;483508;246;27534;-74
2021/07/09 05:13:31;;;;;;;2.80;2.60;;;;;;;;;;483529;246;27422;-74
2021/07/09 05:15:33;;;;;;;3.23;2.97;;;;;;;;;;483484;246;27444;-73
2021/07/09 05:17:35;;;;;;;3.57;3.10;;;;;;;;;;483506;246;27426;-73
2021/07/09 05:19:37;;;;;;;3.07;2.77;;;;;;;;;;483529;246;27445;-73
2021/07/09 05:21:39;;;;;;;2.70;2.43;;;;;;;;;;483460;246;27437;-73
2021/07/09 05:23:42;;;;;;;6.73;2.90;;;;;;;;;;483506;246;27536;-73
2021/07/09 05:25:44;;;;;;;2.77;2.57;;;;;;;;;;483484;246;27410;-73
2021/07/09 05:27:46;;;;;;;3.33;3.03;;;;;;;;;;483521;246;27441;-73
2021/07/09 05:29:48;;;;;;;2.70;2.50;;;;;;;;;;483516;246;27426;-73
2021/07/09 05:31:50;;;;;;;4.03;2.80;;;;;;;;;;483516;246;27523;-73
2021/07/09 05:33:52;;;;;;;3.37;2.83;;;;;;;;;;483438;246;27497;-73
2021/07/09 05:35:54;;;;;;;2.80;2.60;;;;;;;;;;483378;246;27528;-73
2021/07/09 05:37:56;;;;;;;3.43;3.17;;;;;;;;;;483333;246;27426;-73
2021/07/09 05:39:58;;;;;;;5.20;4.00;;;;;;;;;;483252;246;27608;-73
2021/07/09 05:42:02;;;;;;;3.47;2.83;;;;;;;;;;483381;246;27446;-73
2021/07/09 05:44:03;;;;;;;4.67;3.50;;;;;;;;;;483421;246;27470;-73
2021/07/09 05:46:05;;;;;;;3.50;3.20;;;;;;;;;;483493;246;27501;-74
2021/07/09 05:48:07;;;;;;;5.00;2.63;;;;;;;;;;483519;246;27417;-73
2021/07/09 05:50:09;;;;;;;3.40;3.20;;;;;;;;;;483524;246;27394;-73
2021/07/09 05:52:11;;;;;;;3.73;3.13;;;;;;;;;;483490;246;27414;-73
2021/07/09 05:54:13;;;;;;;2.93;2.73;;;;;;;;;;483496;246;27385;-73
2021/07/09 05:56:15;;;;;;;3.67;3.37;;;;;;;;;;483515;244;27548;-74
2021/07/09 05:58:18;;;;;;;3.60;3.30;;;;;;;;;;483500;246;27403;-73
2021/07/09 06:00:20;;;;;;;4.13;3.60;;;;;;;;;;483489;243;27521;-72
2021/07/09 06:02:22;;;;;;;6.50;3.30;;;;;;;;;;483487;246;27398;-74
2021/07/09 06:04:24;;;;;;;4.03;3.73;;;;;;;;;;483479;246;27417;-73
2021/07/09 06:06:26;;;;;;;4.27;3.90;;;;;;;;;;483493;246;27481;-73
2021/07/09 06:08:29;;;;;;;4.60;4.20;;;;;;;;;;483489;246;27485;-73
2021/07/09 06:10:30;;;;;;;4.30;3.90;;;;;;;;;;483413;246;27432;-73
2021/07/09 06:12:32;;;;;;;5.13;4.73;;;;;;;;;;483514;246;27557;-73
2021/07/09 06:14:34;;;;;;;4.70;4.17;;;;;;;;;;483512;246;27396;-73
2021/07/09 06:16:36;;;;;;;4.90;4.50;;;;;;;;;;483500;246;27412;-73
2021/07/09 06:18:39;;;;;;;4.73;4.27;;;;;;;;;;483527;246;27385;-74
2021/07/09 06:20:41;;;;;;;5.73;4.33;;;;;;;;;;483485;246;27421;-73
2021/07/09 06:22:43;;;;;;;4.97;4.00;;;;;;;;;;483477;246;27426;-73
2021/07/09 06:24:45;;;;;;;4.70;4.30;;;;;;;;;;483475;246;27449;-73
2021/07/09 06:26:47;;;;;;;5.90;4.50;;;;;;;;;;483493;246;27421;-73
2021/07/09 06:28:49;;;;;;;4.50;4.10;;;;;;;;;;483502;246;27442;-73
2021/07/09 06:30:51;;;;;;;4.63;4.00;;;;;;;;;;483512;246;27541;-73
2021/07/09 06:32:53;;;;;;;6.00;4.57;;;;;;;;;;483478;246;27439;-73
2021/07/09 06:34:55;;;;;;;5.10;4.63;;;;;;;;;;483499;246;27425;-73
2021/07/09 06:36:58;;;;;;;4.73;4.23;;;;;;;;;;483485;246;27449;-73
2021/07/09 06:39:00;;;;;;;5.97;4.40;;;;;;;;;;483459;246;27441;-73
2021/07/09 06:41:02;;;;;;;4.60;4.20;;;;;;;;;;483525;246;27457;-73
2021/07/09 06:43:04;;;;;;;5.03;4.63;;;;;;;;;;483498;246;27426;-73
2021/07/09 06:45:06;;;;;;;4.93;4.43;;;;;;;;;;483368;246;27468;-73
2021/07/09 06:47:08;;;;;;;5.97;5.37;;;;;;;;;;483505;246;27422;-73
2021/07/09 06:49:10;;;;;;;4.80;4.40;;;;;;;;;;483484;246;27449;-73
2021/07/09 06:51:12;;;;;;;7.43;5.13;;;;;;;;;;483477;246;27516;-74
2021/07/09 06:53:15;;;;;;;5.63;4.73;;;;;;;;;;483490;246;27512;-73
2021/07/09 06:55:18;;;;;;;4.97;4.57;;;;;;;;;;483498;246;27501;-73
2021/07/09 06:57:19;;;;;;;5.20;4.70;;;;;;;;;;483463;246;27433;-73
2021/07/09 06:59:21;;;;;;;5.80;5.00;;;;;;;;;;483490;246;27493;-73
2021/07/09 07:01:23;;;;;;;6.83;5.00;;;;;;;;;;483509;246;27412;-73
2021/07/09 07:03:25;;;;;;;4.83;4.40;;;;;;;;;;483471;246;27398;-73
2021/07/09 07:05:27;;;;;;;5.63;4.83;;;;;;;;;;483509;246;27414;-73
2021/07/09 07:07:29;;;;;;;5.37;4.83;;;;;;;;;;483538;246;27386;-73
2021/07/09 07:09:32;;;;;;;5.80;5.20;;;;;;;;;;483512;246;27414;-73
2021/07/09 07:11:34;;;;;;;6.30;5.70;;;;;;;;;;483508;246;27394;-73
2021/07/09 07:13:36;;;;;;;6.50;5.90;;;;;;;;;;483521;246;27461;-73
2021/07/09 07:15:39;;;;;;;5.80;5.20;;;;;;;;;;483508;246;27466;-73
2021/07/09 07:17:40;;;;;;;6.77;5.50;;;;;;;;;;483404;246;27650;-73
2021/07/09 07:19:42;;;;;;;5.50;5.07;;;;;;;;;;483514;246;27432;-73
2021/07/09 07:21:44;;;;;;;5.67;5.17;;;;;;;;;;483482;246;27449;-73
2021/07/09 07:23:47;;;;;;;5.73;5.23;;;;;;;;;;483511;246;27503;-73
2021/07/09 07:25:48;;;;;;;5.50;5.10;;;;;;;;;;483510;246;27524;-73
2021/07/09 07:27:50;;;;;;;7.07;5.00;;;;;;;;;;483513;246;27445;-73
2021/07/09 07:29:53;;;;;;;6.10;5.60;;;;;;;;;;483472;246;27437;-73
2021/07/09 07:31:55;;;;;;;6.53;5.67;;;;;;;;;;483532;246;27500;-73
2021/07/09 07:33:57;;;;;;;6.03;5.50;;;;;;;;;;483500;246;27525;-73
2021/07/09 07:35:59;;;;;;;5.60;4.90;;;;;;;;;;483519;246;27432;-73
2021/07/09 07:38:02;;;;;;;5.53;5.00;;;;;;;;;;483513;246;27453;-73
2021/07/09 07:40:03;;;;;;;6.03;5.53;;;;;;;;;;483489;246;27437;-73
2021/07/09 07:42:05;;;;;;;6.10;5.50;;;;;;;;;;483528;246;27448;-73
2021/07/09 07:44:07;;;;;;;6.80;5.60;;;;;;;;;;483494;246;27433;-73
2021/07/09 07:46:09;;;;;;;11.13;6.50;;;;;;;;;;483520;246;27446;-73
2021/07/09 07:48:12;;;;;;;5.97;5.47;;;;;;;;;;483511;246;27438;-73
2021/07/09 07:50:16;;;;;;;5.23;4.83;;;;;;;;;;483492;246;27468;-73
2021/07/09 07:52:16;;;;;;;5.83;5.30;;;;;;;;;;483364;246;27401;-74
2021/07/09 07:54:18;;;;;;;5.77;5.30;;;;;;;;;;483497;246;27552;-73
2021/07/09 07:56:20;;;;;;;5.43;4.63;;;;;;;;;;483530;246;27437;-73
2021/07/09 07:58:22;;;;;;;5.60;5.20;;;;;;;;;;483529;246;27425;-74
2021/07/09 08:00:24;;;;;;;5.43;4.93;;;;;;;;;;483514;246;27461;-73
2021/07/09 08:02:26;;;;;;;5.97;5.37;;;;;;;;;;483519;246;27493;-74
2021/07/09 08:04:28;;;;;;;6.90;5.10;;;;;;;;;;483486;246;27403;-74
2021/07/09 08:06:31;;;;;;;5.77;5.27;;;;;;;;;;483505;246;27445;-73
2021/07/09 08:08:33;;;;;;;5.20;4.80;;;;;;;;;;483532;246;27390;-74
2021/07/09 08:10:35;;;;;;;6.30;5.70;;;;;;;;;;483494;246;27405;-74
2021/07/09 08:12:37;;;;;;;6.27;5.67;;;;;;;;;;483508;246;27477;-73
2021/07/09 08:14:39;;;;;;;6.07;5.57;;;;;;;;;;483481;246;27481;-73
2021/07/09 08:16:41;;;;;;;6.20;5.40;;;;;;;;;;483519;246;27487;-73
2021/07/09 08:18:43;;;;;;;5.33;4.93;;;;;;;;;;483507;246;27409;-74
2021/07/09 08:20:45;;;;;;;5.43;5.03;;;;;;;;;;483518;246;27397;-73
2021/07/09 08:22:48;;;;;;;5.70;5.20;;;;;;;;;;483547;246;27441;-73
2021/07/09 08:24:50;;;;;;;6.00;5.50;;;;;;;;;;483523;246;27418;-74
2021/07/09 08:26:52;;;;;;;5.57;5.07;;;;;;;;;;483506;246;27433;-74
2021/07/09 08:28:54;;;;;;;6.10;5.40;;;;;;;;;;483498;246;27417;-74
2021/07/09 08:30:56;;;;;;;7.40;6.60;;;;;;;;;;483483;246;27446;-74
2021/07/09 08:32:58;;;;;;;6.80;6.10;;;;;;;;;;483481;246;27986;-74
2021/07/09 08:35:00;;;;;;;6.60;5.97;;;;;;;;;;483512;246;27465;-73
2021/07/09 08:37:02;;;;;;;6.70;6.10;;;;;;;;;;483522;246;27905;-73
2021/07/09 08:39:04;;;;;;;6.60;6.00;;;;;;;;;;483510;246;27445;-73
2021/07/09 08:41:07;;;;;;;7.93;6.30;;;;;;;;;;483550;246;27462;-74
2021/07/09 08:43:09;;;;;;;8.83;6.90;;;;;;;;;;483506;246;27456;-73
2021/07/09 08:45:11;;;;;;;7.60;6.80;;;;;;;;;;483543;246;27437;-73
2021/07/09 08:47:13;;;;;;;8.47;6.73;;;;;;;;;;483509;246;28029;-73
2021/07/09 08:49:15;;;;;;;8.23;7.43;;;;;;;;;;483461;246;27506;-73
2021/07/09 08:51:17;;;;;;;7.30;6.60;;;;;;;;;;483528;246;27445;-73
2021/07/09 08:53:19;;;;;;;7.90;6.83;;;;;;;;;;483477;246;27496;-74
2021/07/09 08:55:21;;;;;;;6.60;6.00;;;;;;;;;;483496;246;27453;-74
2021/07/09 08:57:23;;;;;;;7.03;6.33;;;;;;;;;;483525;246;27425;-73
2021/07/09 08:59:26;;;;;;;7.50;6.80;;;;;;;;;;483521;246;27509;-73
2021/07/09 09:01:28;;;;;;;7.20;6.50;;;;;;;;;;483495;246;27402;-74
2021/07/09 09:03:30;;;;;;;6.90;6.20;;;;;;;;;;483442;246;27402;-74
2021/07/09 09:05:32;;;;;;;7.00;6.13;;;;;;;;;;483523;244;27397;-74
2021/07/09 09:07:34;;;;;;;7.70;6.10;;;;;;;;;;483511;246;27584;-74
2021/07/09 09:09:36;;;;;;;8.03;6.70;;;;;;;;;;483522;246;27413;-73
2021/07/09 09:11:38;;;;;;;7.00;6.30;;;;;;;;;;483519;246;27525;-74
2021/07/09 09:13:41;;;;;;;6.73;6.03;;;;;;;;;;483508;246;27916;-74
2021/07/09 09:15:42;;;;;;;7.13;6.30;;;;;;;;;;483502;244;27418;-73
2021/07/09 09:17:45;;;;;;;8.03;7.23;;;;;;;;;;483511;246;28037;-74
2021/07/09 09:19:47;;;;;;;7.97;7.17;;;;;;;;;;483523;246;27408;-74
2021/07/09 09:21:49;;;;;;;7.87;6.80;;;;;;;;;;483520;246;27838;-73
2021/07/09 09:23:51;;;;;;;8.23;6.77;;;;;;;;;;483501;246;27521;-74
2021/07/09 09:25:53;;;;;;;7.40;6.73;;;;;;;;;;483519;246;27913;-74
2021/07/09 09:27:55;;;;;;;6.80;6.20;;;;;;;;;;483503;246;27499;-74
2021/07/09 09:29:57;;;;;;;10.03;6.60;;;;;;;;;;483501;246;27912;-74
2021/07/09 09:32:00;;;;;;;7.03;6.40;;;;;;;;;;483495;246;27502;-74
2021/07/09 09:34:01;;;;;;;6.97;6.30;;;;;;;;;;483518;246;27874;-73
2021/07/09 09:36:04;;;;;;;7.97;6.40;;;;;;;;;;483521;246;27519;-74
2021/07/09 09:38:06;;;;;;;6.63;6.03;;;;;;;;;;483522;246;27513;-74
2021/07/09 09:40:08;;;;;;;5.83;5.33;;;;;;;;;;483494;246;27541;-74
2021/07/09 09:42:17;;;;;;;7.03;6.20;;;;;;;;;;483489;246;28029;-74
2021/07/09 09:44:12;;;;;;;6.40;5.80;;;;;;;;;;482983;246;27536;-74
2021/07/09 09:46:15;;;;;;;7.27;5.90;;;;;;;;;;483438;246;28006;-74
2021/07/09 09:48:16;;;;;;;6.83;5.60;;;;;;;;;;483416;246;27453;-74
2021/07/09 09:50:18;;;;;;;6.30;5.73;;;;;;;;;;483524;246;28102;-74
2021/07/09 09:52:21;;;;;;;6.07;5.57;;;;;;;;;;483490;246;27610;-74
2021/07/09 09:54:23;;;;;;;6.10;5.60;;;;;;;;;;483489;246;27881;-74
2021/07/09 09:56:25;;;;;;;6.23;5.63;;;;;;;;;;483501;246;27413;-74
2021/07/09 09:58:27;;;;;;;5.90;5.40;;;;;;;;;;483486;246;27848;-74
2021/07/09 10:00:29;;;;;;;5.57;5.07;;;;;;;;;;483499;246;27446;-74
2021/07/09 10:02:31;;;;;;;5.53;5.00;;;;;;;;;;483486;246;28090;-74
2021/07/09 10:04:33;;;;;;;5.20;4.80;;;;;;;;;;483515;246;27426;-74
2021/07/09 10:06:35;;;;;;;5.70;5.07;;;;;;;;;;483516;246;27849;-74
2021/07/09 10:08:37;;;;;;;5.63;5.00;;;;;;;;;;483664;246;27425;-74
2021/07/09 10:10:40;;;;;;;5.43;5.03;;;;;;;;;;483926;246;27971;-74
2021/07/09 10:12:42;;;;;;;6.00;5.40;;;;;;;;;;484114;246;27601;-74
2021/07/09 10:14:44;;;;;;;6.80;6.20;;;;;;;;;;484097;245;27986;-73
2021/07/09 10:16:46;;;;;;;6.17;5.03;;;;;;;;;;484089;245;27580;-74
2021/07/09 10:18:48;;;;;;;5.73;5.20;;;;;;;;;;484089;245;28048;-74
2021/07/09 10:20:50;;;;;;;6.10;5.47;;;;;;;;;;484087;245;27585;-73
2021/07/09 10:22:52;;;;;;;7.30;6.60;;;;;;;;;;484101;245;27948;-74
2021/07/09 10:24:54;;;;;;;9.80;8.30;;;;;;;;;;484123;245;27628;-74
2021/07/09 10:26:56;;;;;;;11.23;7.53;;;;;;;;;;484086;245;28894;-75
2021/07/09 10:28:59;;;;;;;7.43;6.63;;;;;;;;;;484059;245;27525;-74
2021/07/09 10:31:01;;;;;;;8.17;6.80;;;;;;;;;;484093;245;28069;-74
2021/07/09 10:33:03;;;;;;;6.77;5.50;;;;;;;;;;484070;245;27974;-75
2021/07/09 10:35:05;;;;;;;7.87;6.33;;;;;;;;;;484077;245;27564;-75
2021/07/09 10:37:08;;;;;;;6.90;6.30;;;;;;;;;;484067;245;27625;-75
2021/07/09 10:39:09;;;;;;;6.77;6.10;;;;;;;;;;484026;245;27541;-74
2021/07/09 10:41:11;;;;;;;6.20;5.57;;;;;;;;;;484076;245;27588;-74
2021/07/09 10:43:13;;;;;;;7.93;5.57;;;;;;;;;;484096;245;27533;-74
2021/07/09 10:45:15;;;;;;;5.83;5.33;;;;;;;;;;484089;245;27562;-74
2021/07/09 10:47:18;;;;;;;6.40;5.90;;;;;;;;;;484087;245;27616;-74
2021/07/09 10:49:20;;;;;;;6.53;5.93;;;;;;;;;;484084;245;27540;-74
2021/07/09 10:51:22;;;;;;;6.13;5.53;;;;;;;;;;484117;245;27651;-74
2021/07/09 10:55:46;;;;;;;6.43;5.83;;;;;;;;;;485221;244;27556;-74
2021/07/09 10:57:48;;;;;;;6.03;5.53;;;;;;;;;;477179;248;27465;-75
2021/07/09 10:59:50;;;;;;;6.37;5.80;;;;;;;;;;485904;245;27367;-74
2021/07/09 11:01:54;;;;;;;6.37;5.77;;;;;;;;;;486046;245;27433;-74
2021/07/09 11:03:54;;;;;;;6.60;5.90;;;;;;;;;;486025;245;27425;-74
2021/07/09 11:05:56;;;;;;;6.90;6.30;;;;;;;;;;486034;245;27376;-74
2021/07/09 11:07:58;;;;;;;5.97;5.47;;;;;;;;;;486081;245;27336;-74
2021/07/09 11:10:00;;;;;;;9.07;6.60;;;;;;;;;;486052;245;27344;-74
2021/07/09 11:12:02;;;;;;;7.07;6.27;;;;;;;;;;486036;245;27380;-74
2021/07/09 11:14:05;;;;;;;8.10;5.80;;;;;;;;;;486034;245;27345;-74
2021/07/09 11:16:07;;;;;;;6.93;6.23;;;;;;;;;;486045;245;27360;-74
2021/07/09 11:18:09;;;;;;;7.00;6.40;;;;;;;;;;486032;245;27425;-74
2021/07/09 11:20:11;;;;;;;7.10;6.40;;;;;;;;;;486034;245;27337;-74
2021/07/09 11:22:13;;;;;;;6.63;6.03;;;;;;;;;;486015;245;27366;-74
2021/07/09 11:24:17;;;;;;;6.80;6.10;;;;;;;;;;486014;245;27421;-73
2021/07/09 11:26:17;;;;;;;7.10;6.50;;;;;;;;;;486025;245;27359;-74
2021/07/09 11:28:19;;;;;;;7.03;6.33;;;;;;;;;;486017;245;27345;-74
2021/07/09 11:30:21;;;;;;;6.27;5.70;;;;;;;;;;485923;245;27338;-73
2021/07/09 11:32:24;;;;;;;6.97;5.93;;;;;;;;;;486031;245;27416;-73
2021/07/09 11:34:26;;;;;;;7.40;6.57;;;;;;;;;;486020;245;27844;-74
2021/07/09 11:36:28;;;;;;;6.70;6.00;;;;;;;;;;486033;245;27322;-73
2021/07/09 11:38:30;;;;;;;7.10;6.43;;;;;;;;;;486028;245;27409;-74
2021/07/09 11:40:32;;;;;;;6.93;6.40;;;;;;;;;;486038;245;27396;-73
2021/07/09 11:42:34;;;;;;;6.60;6.00;;;;;;;;;;486014;245;27322;-72
2021/07/09 11:44:36;;;;;;;6.93;5.70;;;;;;;;;;486029;245;27357;-73
2021/07/09 11:46:38;;;;;;;7.20;6.00;;;;;;;;;;486037;245;27882;-74
2021/07/09 11:48:40;;;;;;;6.03;5.53;;;;;;;;;;486040;245;27380;-73
2021/07/09 11:50:43;;;;;;;7.10;5.17;;;;;;;;;;485991;245;27872;-73
2021/07/09 11:52:45;;;;;;;6.13;4.90;;;;;;;;;;486028;245;27299;-73
2021/07/09 11:54:48;;;;;;;5.40;4.90;;;;;;;;;;486029;241;27775;-74
2021/07/09 11:56:49;;;;;;;5.57;5.17;;;;;;;;;;486012;245;27443;-74
2021/07/09 11:58:51;;;;;;;5.13;4.63;;;;;;;;;;485962;245;27311;-73
2021/07/09 12:00:53;;;;;;;5.43;4.87;;;;;;;;;;485949;241;27314;-74
2021/07/09 12:02:55;;;;;;;5.60;3.90;;;;;;;;;;485959;241;27879;-73
2021/07/09 12:04:57;;;;;;;5.00;4.60;;;;;;;;;;485861;245;27314;-74
2021/07/09 12:07:00;;;;;;;4.83;4.40;;;;;;;;;;486008;245;27309;-73
2021/07/09 12:09:02;;;;;;;5.17;4.77;;;;;;;;;;485914;245;27392;-75
2021/07/09 12:11:04;;;;;;;5.10;4.53;;;;;;;;;;486019;245;27825;-74
2021/07/09 12:13:06;;;;;;;6.63;4.87;;;;;;;;;;486024;245;27368;-74
2021/07/09 12:15:08;;;;;;;4.63;4.30;;;;;;;;;;486019;245;27362;-74